createdAt,value
2018-01-23T00:00:18.340Z,0.00
2018-01-23T00:02:11.613Z,0.00
2018-01-23T00:03:11.525Z,0.00
2018-01-23T00:05:04.781Z,0.00
2018-01-23T00:06:04.716Z,0.00
2018-01-23T00:07:57.990Z,0.00
2018-01-23T00:08:57.901Z,0.00
2018-01-23T00:10:51.174Z,0.00
2018-01-23T00:11:51.088Z,0.00
2018-01-23T00:13:44.404Z,0.00
2018-01-23T00:14:44.342Z,0.00
2018-01-23T00:16:37.728Z,0.00
2018-01-23T00:17:37.527Z,0.00
2018-01-23T00:19:30.778Z,0.00
2018-01-23T00:20:30.705Z,0.00
2018-01-23T00:22:23.982Z,0.00
2018-01-23T00:23:23.893Z,0.00
2018-01-23T00:25:17.157Z,0.00
2018-01-23T00:26:17.084Z,0.00
2018-01-23T00:28:10.363Z,0.00
2018-01-23T00:29:10.270Z,0.00
2018-01-23T00:31:03.657Z,0.00
2018-01-23T00:32:03.457Z,0.00
2018-01-23T00:33:56.718Z,0.00
2018-01-23T00:34:56.650Z,0.00
2018-01-23T00:36:49.921Z,0.00
2018-01-23T00:37:49.832Z,0.00
2018-01-23T00:39:43.078Z,0.00
2018-01-23T00:40:43.011Z,0.00
2018-01-23T00:42:36.285Z,0.00
2018-01-23T00:43:36.197Z,0.00
2018-01-23T00:45:29.453Z,0.00
2018-01-23T00:46:29.385Z,0.00
2018-01-23T00:48:22.665Z,0.00
2018-01-23T00:49:22.574Z,0.00
2018-01-23T00:51:15.847Z,0.00
2018-01-23T00:52:15.763Z,0.00
2018-01-23T00:54:09.021Z,0.00
2018-01-23T00:55:08.959Z,0.00
2018-01-23T00:57:02.232Z,0.00
2018-01-23T00:58:02.143Z,0.00
2018-01-23T00:59:55.406Z,0.00
2018-01-23T01:00:55.338Z,0.00
2018-01-23T01:02:48.614Z,0.00
2018-01-23T01:03:48.528Z,0.00
2018-01-23T01:05:41.784Z,0.00
2018-01-23T01:06:41.713Z,0.00
2018-01-23T01:08:34.986Z,0.00
2018-01-23T01:09:34.903Z,0.00
2018-01-23T01:11:28.174Z,0.00
2018-01-23T01:12:28.090Z,0.00
2018-01-23T01:14:21.407Z,0.00
2018-01-23T01:15:21.338Z,0.00
2018-01-23T01:17:14.722Z,0.00
2018-01-23T01:18:14.522Z,0.00
2018-01-23T01:20:07.776Z,0.00
2018-01-23T01:21:07.701Z,0.00
2018-01-23T01:23:00.977Z,0.00
2018-01-23T01:24:00.891Z,0.00
2018-01-23T01:25:54.146Z,0.00
2018-01-23T01:26:54.081Z,0.00
2018-01-23T01:28:47.423Z,0.00
2018-01-23T01:29:47.335Z,0.00
2018-01-23T01:31:40.610Z,0.00
2018-01-23T01:32:40.521Z,0.00
2018-01-23T01:34:33.777Z,0.00
2018-01-23T01:35:33.706Z,0.00
2018-01-23T01:37:26.988Z,0.00
2018-01-23T01:38:26.901Z,0.00
2018-01-23T01:40:20.144Z,0.00
2018-01-23T01:41:20.081Z,0.00
2018-01-23T01:43:13.461Z,0.00
2018-01-23T01:44:13.339Z,0.00
2018-01-23T01:46:06.704Z,0.00
2018-01-23T01:47:06.530Z,0.00
2018-01-23T01:48:59.798Z,0.00
2018-01-23T01:49:59.708Z,0.00
2018-01-23T01:51:52.989Z,0.00
2018-01-23T01:52:52.899Z,0.00
2018-01-23T01:54:46.155Z,0.00
2018-01-23T01:55:46.093Z,0.00
2018-01-23T01:57:40.215Z,0.00
2018-01-23T01:58:40.114Z,0.00
2018-01-23T02:00:33.409Z,0.00
2018-01-23T02:01:33.333Z,0.00
2018-01-23T02:03:26.656Z,0.00
2018-01-23T02:04:26.558Z,0.00
2018-01-23T02:06:19.815Z,0.00
2018-01-23T02:07:19.745Z,0.00
2018-01-23T02:09:13.028Z,0.00
2018-01-23T02:10:12.933Z,0.00
2018-01-23T02:12:06.206Z,0.00
2018-01-23T02:13:06.120Z,0.00
2018-01-23T02:14:59.406Z,0.00
2018-01-23T02:15:59.336Z,0.00
2018-01-23T02:17:52.611Z,0.00
2018-01-23T02:18:52.521Z,0.00
2018-01-23T02:20:45.891Z,0.00
2018-01-23T02:21:45.706Z,0.00
2018-01-23T02:23:38.986Z,0.00
2018-01-23T02:24:38.898Z,0.00
2018-01-23T02:26:32.264Z,0.00
2018-01-23T02:27:32.089Z,0.00
2018-01-23T02:29:25.452Z,0.00
2018-01-23T02:30:25.356Z,0.00
2018-01-23T02:32:18.741Z,0.00
2018-01-23T02:33:18.543Z,0.00
2018-01-23T02:35:11.800Z,0.00
2018-01-23T02:36:11.725Z,0.00
2018-01-23T02:38:05.003Z,0.00
2018-01-23T02:39:04.919Z,0.00
2018-01-23T02:40:58.287Z,0.00
2018-01-23T02:41:58.148Z,0.00
2018-01-23T02:43:51.432Z,0.00
2018-01-23T02:44:51.338Z,0.00
2018-01-23T02:46:44.589Z,0.00
2018-01-23T02:47:44.519Z,0.00
2018-01-23T02:49:37.918Z,0.00
2018-01-23T02:50:37.714Z,0.00
2018-01-23T02:52:30.990Z,0.00
2018-01-23T02:53:30.904Z,0.00
2018-01-23T02:55:24.172Z,0.00
2018-01-23T02:56:24.097Z,0.00
2018-01-23T02:58:17.370Z,0.00
2018-01-23T02:59:17.282Z,0.00
2018-01-23T03:01:10.542Z,0.00
2018-01-23T03:02:10.472Z,0.00
2018-01-23T03:04:03.859Z,0.00
2018-01-23T03:05:03.662Z,0.00
2018-01-23T03:06:56.957Z,0.00
2018-01-23T03:07:56.888Z,0.00
2018-01-23T03:09:50.164Z,0.00
2018-01-23T03:10:50.082Z,0.00
2018-01-23T03:12:43.403Z,0.00
2018-01-23T03:13:43.288Z,0.00
2018-01-23T03:15:36.555Z,0.00
2018-01-23T03:16:36.468Z,0.00
2018-01-23T03:18:29.744Z,0.00
2018-01-23T03:19:29.659Z,0.00
2018-01-23T03:21:23.020Z,0.00
2018-01-23T03:22:22.842Z,0.00
2018-01-23T03:24:16.146Z,0.00
2018-01-23T03:25:16.058Z,0.00
2018-01-23T03:27:09.348Z,0.00
2018-01-23T03:28:09.261Z,0.00
2018-01-23T03:30:02.588Z,0.00
2018-01-23T03:31:02.509Z,0.00
2018-01-23T03:32:55.887Z,0.00
2018-01-23T03:33:55.706Z,0.00
2018-01-23T03:35:48.957Z,0.00
2018-01-23T03:36:48.892Z,0.00
2018-01-23T03:38:42.192Z,0.00
2018-01-23T03:39:42.116Z,0.00
2018-01-23T03:41:35.346Z,0.00
2018-01-23T03:42:35.278Z,0.00
2018-01-23T03:44:28.614Z,0.00
2018-01-23T03:45:28.521Z,0.00
2018-01-23T03:47:21.792Z,0.00
2018-01-23T03:48:21.705Z,0.00
2018-01-23T03:50:14.983Z,0.00
2018-01-23T03:51:14.900Z,0.00
2018-01-23T03:53:08.174Z,0.00
2018-01-23T03:54:08.084Z,0.00
2018-01-23T03:56:01.567Z,0.00
2018-01-23T03:57:01.497Z,0.00
2018-01-23T03:58:54.776Z,0.00
2018-01-23T03:59:54.683Z,0.00
2018-01-23T04:01:47.939Z,0.00
2018-01-23T04:02:47.873Z,0.00
2018-01-23T04:04:41.153Z,0.00
2018-01-23T04:05:41.061Z,0.00
2018-01-23T04:07:34.331Z,0.00
2018-01-23T04:08:34.262Z,0.00
2018-01-23T04:10:27.586Z,0.00
2018-01-23T04:11:27.497Z,0.00
2018-01-23T04:13:20.779Z,0.00
2018-01-23T04:14:20.690Z,0.00
2018-01-23T04:16:13.960Z,0.00
2018-01-23T04:17:13.894Z,0.00
2018-01-23T04:19:07.171Z,0.00
2018-01-23T04:20:07.095Z,0.00
2018-01-23T04:22:00.452Z,0.00
2018-01-23T04:23:00.286Z,0.00
2018-01-23T04:24:53.611Z,0.00
2018-01-23T04:25:53.490Z,0.00
2018-01-23T04:27:46.867Z,0.00
2018-01-23T04:28:46.747Z,0.00
2018-01-23T04:30:39.991Z,0.00
2018-01-23T04:31:39.904Z,0.00
2018-01-23T04:33:33.178Z,0.00
2018-01-23T04:34:33.085Z,0.00
2018-01-23T04:36:26.457Z,0.00
2018-01-23T04:37:26.304Z,0.00
2018-01-23T04:39:19.598Z,0.00
2018-01-23T04:40:19.498Z,0.00
2018-01-23T04:42:12.754Z,0.00
2018-01-23T04:43:12.716Z,0.00
2018-01-23T04:45:06.009Z,0.00
2018-01-23T04:46:05.867Z,0.00
2018-01-23T04:47:59.240Z,0.00
2018-01-23T04:48:59.060Z,0.00
2018-01-23T04:50:52.440Z,0.00
2018-01-23T04:51:52.315Z,0.00
2018-01-23T04:53:45.614Z,0.00
2018-01-23T04:54:45.529Z,0.00
2018-01-23T04:56:38.790Z,0.00
2018-01-23T04:57:38.715Z,0.00
2018-01-23T04:59:32.102Z,0.00
2018-01-23T05:00:31.907Z,0.00
2018-01-23T05:02:26.163Z,0.00
2018-01-23T05:03:26.090Z,0.00
2018-01-23T05:05:19.586Z,0.00
2018-01-23T05:06:19.497Z,0.00
2018-01-23T05:08:12.870Z,0.00
2018-01-23T05:09:12.692Z,0.00
2018-01-23T05:11:06.074Z,0.00
2018-01-23T05:12:05.876Z,0.00
2018-01-23T05:13:59.148Z,0.00
2018-01-23T05:14:59.060Z,0.00
2018-01-23T05:16:52.315Z,0.00
2018-01-23T05:17:52.249Z,0.00
2018-01-23T05:19:45.600Z,0.00
2018-01-23T05:20:45.505Z,0.00
2018-01-23T05:22:38.752Z,0.00
2018-01-23T05:23:38.684Z,0.00
2018-01-23T05:25:31.960Z,0.00
2018-01-23T05:26:31.868Z,0.00
2018-01-23T05:28:25.123Z,0.00
2018-01-23T05:29:25.069Z,0.00
2018-01-23T05:31:18.329Z,0.00
2018-01-23T05:32:18.240Z,0.00
2018-01-23T05:34:11.587Z,0.00
2018-01-23T05:35:11.499Z,0.00
2018-01-23T05:37:04.862Z,0.00
2018-01-23T05:38:04.683Z,0.00
2018-01-23T05:39:57.974Z,0.00
2018-01-23T05:40:57.874Z,0.00
2018-01-23T05:42:52.138Z,0.00
2018-01-23T05:43:52.064Z,0.00
2018-01-23T05:45:45.584Z,0.00
2018-01-23T05:46:45.489Z,0.00
2018-01-23T05:48:38.747Z,0.00
2018-01-23T05:49:38.674Z,0.00
2018-01-23T05:51:32.062Z,0.00
2018-01-23T05:52:31.862Z,0.00
2018-01-23T05:54:25.134Z,0.00
2018-01-23T05:55:25.049Z,0.00
2018-01-23T05:57:18.311Z,0.00
2018-01-23T05:58:18.240Z,0.00
2018-01-23T06:00:11.587Z,0.00
2018-01-23T06:01:11.502Z,0.00
2018-01-23T06:03:04.764Z,0.00
2018-01-23T06:04:04.689Z,0.00
2018-01-23T06:05:59.074Z,0.00
2018-01-23T06:06:58.877Z,0.00
2018-01-23T06:08:52.144Z,0.00
2018-01-23T06:09:52.076Z,0.00
2018-01-23T06:11:45.583Z,0.00
2018-01-23T06:12:45.494Z,0.00
2018-01-23T06:14:38.772Z,0.00
2018-01-23T06:15:38.679Z,0.00
2018-01-23T06:17:31.936Z,0.00
2018-01-23T06:18:31.865Z,0.00
2018-01-23T06:20:25.249Z,0.00
2018-01-23T06:21:25.041Z,0.00
2018-01-23T06:23:18.300Z,0.00
2018-01-23T06:24:18.231Z,0.00
2018-01-23T06:26:11.581Z,0.00
2018-01-23T06:27:11.498Z,0.00
2018-01-23T06:29:04.867Z,0.00
2018-01-23T06:30:04.688Z,0.00
2018-01-23T06:31:58.065Z,0.00
2018-01-23T06:32:57.880Z,0.00
2018-01-23T06:34:51.158Z,0.00
2018-01-23T06:35:51.067Z,0.00
2018-01-23T06:37:44.333Z,0.00
2018-01-23T06:38:44.262Z,0.00
2018-01-23T06:40:37.597Z,0.00
2018-01-23T06:41:37.498Z,0.00
2018-01-23T06:43:30.763Z,0.00
2018-01-23T06:44:30.690Z,0.00
2018-01-23T06:46:23.968Z,0.00
2018-01-23T06:47:23.880Z,0.00
2018-01-23T06:49:17.245Z,0.00
2018-01-23T06:50:17.066Z,0.00
2018-01-23T06:52:10.342Z,0.00
2018-01-23T06:53:10.253Z,0.00
2018-01-23T06:55:03.580Z,0.00
2018-01-23T06:56:03.491Z,0.00
2018-01-23T06:57:56.752Z,0.00
2018-01-23T06:58:56.680Z,0.00
2018-01-23T07:00:49.962Z,0.00
2018-01-23T07:01:49.869Z,0.00
2018-01-23T07:03:43.128Z,0.00
2018-01-23T07:04:43.057Z,0.00
2018-01-23T07:06:36.333Z,0.00
2018-01-23T07:07:36.243Z,0.00
2018-01-23T07:09:29.575Z,0.00
2018-01-23T07:10:29.501Z,0.00
2018-01-23T07:12:22.777Z,0.00
2018-01-23T07:13:22.686Z,0.00
2018-01-23T07:15:15.972Z,0.00
2018-01-23T07:16:15.886Z,0.00
2018-01-23T07:18:09.137Z,0.00
2018-01-23T07:19:09.069Z,0.00
2018-01-23T07:21:02.347Z,0.00
2018-01-23T07:22:02.256Z,0.00
2018-01-23T07:23:55.566Z,0.00
2018-01-23T07:24:55.498Z,0.00
2018-01-23T07:26:48.771Z,0.00
2018-01-23T07:27:48.682Z,0.00
2018-01-23T07:29:42.050Z,0.00
2018-01-23T07:30:41.871Z,0.00
2018-01-23T07:32:35.147Z,0.00
2018-01-23T07:33:35.059Z,0.00
2018-01-23T07:35:28.334Z,0.00
2018-01-23T07:36:28.245Z,5.63
2018-01-23T07:38:21.570Z,5.63
2018-01-23T07:39:21.501Z,5.63
2018-01-23T07:41:14.900Z,5.63
2018-01-23T07:42:14.687Z,5.63
2018-01-23T07:44:07.946Z,5.63
2018-01-23T07:45:07.873Z,5.63
2018-01-23T07:47:01.259Z,5.63
2018-01-23T07:48:01.065Z,5.63
2018-01-23T07:49:54.309Z,5.63
2018-01-23T07:50:54.239Z,5.63
2018-01-23T07:52:47.585Z,5.63
2018-01-23T07:53:47.494Z,5.63
2018-01-23T07:55:40.761Z,11.25
2018-01-23T07:56:40.670Z,11.25
2018-01-23T07:58:33.924Z,11.25
2018-01-23T07:59:33.856Z,11.25
2018-01-23T08:01:27.134Z,11.25
2018-01-23T08:02:27.043Z,11.25
2018-01-23T08:04:20.299Z,11.25
2018-01-23T08:05:20.231Z,11.25
2018-01-23T08:07:13.588Z,11.25
2018-01-23T08:08:13.496Z,11.25
2018-01-23T08:10:06.761Z,11.25
2018-01-23T08:11:06.673Z,11.25
2018-01-23T08:12:59.947Z,11.25
2018-01-23T08:13:59.858Z,16.88
2018-01-23T08:15:53.132Z,16.88
2018-01-23T08:16:53.094Z,11.25
2018-01-23T08:18:46.303Z,11.25
2018-01-23T08:19:46.221Z,11.25
2018-01-23T08:21:39.589Z,16.88
2018-01-23T08:22:39.500Z,16.88
2018-01-23T08:24:32.758Z,16.88
2018-01-23T08:25:32.686Z,16.88
2018-01-23T08:27:26.071Z,16.88
2018-01-23T08:28:25.881Z,16.88
2018-01-23T08:30:19.145Z,16.88
2018-01-23T08:31:19.050Z,16.88
2018-01-23T08:33:12.302Z,16.88
2018-01-23T08:34:12.231Z,16.88
2018-01-23T08:36:05.619Z,16.88
2018-01-23T08:37:05.520Z,16.88
2018-01-23T08:38:58.872Z,16.88
2018-01-23T08:39:58.701Z,16.88
2018-01-23T08:41:51.545Z,16.88
2018-01-23T08:42:51.443Z,22.50
2018-01-23T08:44:44.727Z,22.50
2018-01-23T08:45:44.619Z,22.50
2018-01-23T08:47:37.903Z,22.50
2018-01-23T08:48:37.827Z,22.50
2018-01-23T08:50:31.088Z,22.50
2018-01-23T08:51:30.982Z,22.50
2018-01-23T08:53:24.256Z,22.50
2018-01-23T08:54:24.157Z,22.50
2018-01-23T08:56:17.620Z,28.13
2018-01-23T08:57:17.517Z,28.13
2018-01-23T08:59:10.774Z,28.13
2018-01-23T09:00:10.693Z,28.13
2018-01-23T09:02:03.959Z,28.13
2018-01-23T09:03:03.872Z,28.13
2018-01-23T09:04:57.123Z,28.13
2018-01-23T09:05:57.062Z,28.13
2018-01-23T09:07:50.321Z,28.13
2018-01-23T09:08:50.236Z,28.13
2018-01-23T09:10:43.597Z,33.75
2018-01-23T09:11:43.495Z,33.75
2018-01-23T09:13:36.746Z,33.75
2018-01-23T09:14:36.675Z,33.75
2018-01-23T09:16:29.943Z,33.75
2018-01-23T09:17:29.853Z,33.75
2018-01-23T09:19:23.100Z,33.75
2018-01-23T09:20:23.029Z,39.38
2018-01-23T09:22:16.301Z,39.38
2018-01-23T09:23:16.219Z,33.75
2018-01-23T09:25:09.565Z,33.75
2018-01-23T09:26:09.495Z,33.75
2018-01-23T09:28:02.763Z,33.75
2018-01-23T09:29:02.674Z,33.75
2018-01-23T09:30:55.954Z,33.75
2018-01-23T09:31:55.861Z,39.38
2018-01-23T09:33:49.106Z,45.00
2018-01-23T09:34:49.031Z,45.00
2018-01-23T09:36:42.300Z,39.38
2018-01-23T09:37:42.214Z,45.00
2018-01-23T09:39:35.466Z,45.00
2018-01-23T09:40:35.395Z,45.00
2018-01-23T09:42:28.662Z,45.00
2018-01-23T09:43:28.574Z,45.00
2018-01-23T09:45:21.847Z,45.00
2018-01-23T09:46:21.791Z,50.63
2018-01-23T09:48:15.021Z,50.63
2018-01-23T09:49:14.929Z,50.63
2018-01-23T09:51:08.197Z,50.63
2018-01-23T09:52:08.107Z,50.63
2018-01-23T09:54:01.575Z,50.63
2018-01-23T09:55:01.510Z,56.25
2018-01-23T09:56:54.893Z,56.25
2018-01-23T09:57:54.693Z,56.25
2018-01-23T09:59:47.938Z,50.63
2018-01-23T10:00:47.870Z,50.63
2018-01-23T10:02:41.259Z,50.63
2018-01-23T10:03:41.048Z,50.63
2018-01-23T10:05:34.299Z,56.25
2018-01-23T10:06:34.224Z,56.25
2018-01-23T10:08:27.593Z,56.25
2018-01-23T10:09:27.506Z,50.63
2018-01-23T10:11:20.892Z,50.63
2018-01-23T10:12:20.686Z,45.00
2018-01-23T10:14:13.936Z,45.00
2018-01-23T10:15:13.869Z,45.00
2018-01-23T10:17:07.133Z,50.63
2018-01-23T10:18:07.046Z,50.63
2018-01-23T10:20:00.297Z,56.25
2018-01-23T10:21:00.228Z,56.25
2018-01-23T10:22:53.494Z,56.25
2018-01-23T10:23:53.404Z,56.25
2018-01-23T10:25:46.777Z,56.25
2018-01-23T10:26:46.585Z,61.88
2018-01-23T10:28:39.861Z,61.88
2018-01-23T10:29:39.767Z,67.50
2018-01-23T10:31:33.036Z,67.50
2018-01-23T10:32:32.946Z,67.50
2018-01-23T10:34:26.196Z,67.50
2018-01-23T10:35:26.125Z,67.50
2018-01-23T10:37:19.528Z,67.50
2018-01-23T10:38:19.337Z,61.88
2018-01-23T10:40:12.610Z,61.88
2018-01-23T10:41:12.540Z,61.88
2018-01-23T10:43:05.811Z,67.50
2018-01-23T10:44:05.720Z,61.88
2018-01-23T10:45:58.969Z,61.88
2018-01-23T10:46:58.936Z,61.88
2018-01-23T10:48:52.287Z,61.88
2018-01-23T10:49:52.081Z,67.50
2018-01-23T10:51:45.422Z,67.50
2018-01-23T10:52:45.331Z,67.50
2018-01-23T10:54:38.588Z,67.50
2018-01-23T10:55:38.518Z,67.50
2018-01-23T10:57:31.785Z,67.50
2018-01-23T10:58:31.696Z,67.50
2018-01-23T11:00:24.947Z,73.13
2018-01-23T11:01:24.901Z,67.50
2018-01-23T11:03:18.209Z,61.88
2018-01-23T11:04:18.115Z,61.88
2018-01-23T11:06:11.412Z,61.88
2018-01-23T11:07:11.334Z,61.88
2018-01-23T11:09:04.634Z,61.88
2018-01-23T11:10:04.546Z,61.88
2018-01-23T11:11:57.908Z,61.88
2018-01-23T11:12:57.711Z,67.50
2018-01-23T11:14:50.963Z,61.88
2018-01-23T11:15:50.886Z,61.88
2018-01-23T11:17:44.161Z,61.88
2018-01-23T11:18:44.070Z,56.25
2018-01-23T11:20:37.479Z,56.25
2018-01-23T11:21:37.354Z,61.88
2018-01-23T11:23:30.612Z,73.13
2018-01-23T11:24:30.529Z,73.13
2018-01-23T11:26:23.861Z,67.50
2018-01-23T11:27:23.776Z,61.88
2018-01-23T11:29:17.075Z,61.88
2018-01-23T11:30:16.987Z,61.88
2018-01-23T11:32:10.266Z,61.88
2018-01-23T11:33:10.184Z,61.88
2018-01-23T11:35:03.434Z,61.88
2018-01-23T11:36:03.364Z,61.88
2018-01-23T11:37:56.673Z,61.88
2018-01-23T11:38:56.560Z,61.88
2018-01-23T11:40:49.909Z,61.88
2018-01-23T11:41:49.734Z,61.88
2018-01-23T11:43:43.014Z,56.25
2018-01-23T11:44:42.928Z,61.88
2018-01-23T11:46:36.212Z,67.50
2018-01-23T11:47:36.140Z,67.50
2018-01-23T11:49:29.427Z,78.75
2018-01-23T11:50:29.340Z,84.38
2018-01-23T11:52:22.610Z,90.00
2018-01-23T11:53:22.525Z,90.00
2018-01-23T11:55:15.774Z,95.63
2018-01-23T11:56:15.707Z,95.63
2018-01-23T11:58:09.074Z,101.25
2018-01-23T11:59:08.878Z,90.00
2018-01-23T12:01:02.260Z,84.38
2018-01-23T12:02:02.108Z,73.13
2018-01-23T12:03:55.440Z,78.75
2018-01-23T12:04:55.344Z,73.13
2018-01-23T12:06:48.597Z,56.25
2018-01-23T12:07:48.532Z,50.63
2018-01-23T12:09:41.822Z,45.00
2018-01-23T12:10:41.734Z,39.38
2018-01-23T12:12:34.518Z,39.38
2018-01-23T12:13:34.431Z,45.00
2018-01-23T12:15:27.688Z,56.25
2018-01-23T12:16:27.607Z,56.25
2018-01-23T12:18:20.881Z,56.25
2018-01-23T12:19:20.840Z,61.88
2018-01-23T12:21:14.164Z,84.38
2018-01-23T12:22:13.976Z,90.00
2018-01-23T12:24:07.247Z,95.63
2018-01-23T12:25:07.159Z,95.63
2018-01-23T12:27:00.414Z,90.00
2018-01-23T12:28:00.350Z,90.00
2018-01-23T12:29:53.620Z,95.63
2018-01-23T12:30:53.534Z,90.00
2018-01-23T12:32:46.802Z,78.75
2018-01-23T12:33:46.713Z,73.13
2018-01-23T12:35:39.968Z,61.88
2018-01-23T12:36:39.899Z,61.88
2018-01-23T12:38:33.172Z,56.25
2018-01-23T12:39:33.081Z,56.25
2018-01-23T12:41:26.453Z,61.88
2018-01-23T12:42:26.273Z,61.88
2018-01-23T12:44:19.658Z,61.88
2018-01-23T12:45:19.450Z,67.50
2018-01-23T12:47:12.718Z,67.50
2018-01-23T12:48:12.652Z,61.88
2018-01-23T12:50:05.935Z,61.88
2018-01-23T12:51:05.852Z,61.88
2018-01-23T12:52:59.122Z,73.13
2018-01-23T12:53:59.034Z,73.13
2018-01-23T12:55:52.408Z,73.13
2018-01-23T12:56:52.217Z,73.13
2018-01-23T12:58:45.487Z,78.75
2018-01-23T12:59:45.402Z,78.75
2018-01-23T13:01:38.662Z,67.50
2018-01-23T13:02:38.579Z,73.13
2018-01-23T13:04:31.850Z,73.13
2018-01-23T13:05:31.761Z,73.13
2018-01-23T13:07:25.012Z,67.50
2018-01-23T13:08:24.948Z,73.13
2018-01-23T13:10:18.347Z,73.13
2018-01-23T13:11:18.129Z,73.13
2018-01-23T13:13:11.433Z,67.50
2018-01-23T13:14:11.346Z,67.50
2018-01-23T13:16:04.716Z,67.50
2018-01-23T13:17:04.529Z,67.50
2018-01-23T13:18:57.808Z,67.50
2018-01-23T13:19:57.722Z,67.50
2018-01-23T13:21:50.972Z,67.50
2018-01-23T13:22:50.900Z,61.88
2018-01-23T13:24:44.174Z,61.88
2018-01-23T13:25:44.109Z,56.25
2018-01-23T13:27:37.406Z,56.25
2018-01-23T13:28:37.339Z,56.25
2018-01-23T13:30:30.611Z,56.25
2018-01-23T13:31:30.523Z,61.88
2018-01-23T13:33:23.795Z,73.13
2018-01-23T13:34:23.706Z,73.13
2018-01-23T13:36:17.077Z,78.75
2018-01-23T13:37:16.885Z,84.38
2018-01-23T13:39:10.159Z,95.63
2018-01-23T13:40:10.080Z,90.00
2018-01-23T13:42:03.409Z,84.38
2018-01-23T13:43:03.340Z,84.38
2018-01-23T13:44:56.620Z,67.50
2018-01-23T13:45:56.533Z,67.50
2018-01-23T13:47:49.786Z,67.50
2018-01-23T13:48:49.733Z,67.50
2018-01-23T13:50:42.989Z,67.50
2018-01-23T13:51:42.900Z,61.88
2018-01-23T13:53:36.175Z,61.88
2018-01-23T13:54:36.088Z,56.25
2018-01-23T13:56:29.459Z,61.88
2018-01-23T13:57:29.976Z,61.88
2018-01-23T13:59:22.123Z,61.88
2018-01-23T14:00:22.695Z,61.88
2018-01-23T14:02:15.410Z,61.88
2018-01-23T14:03:15.338Z,61.88
2018-01-23T14:05:08.607Z,61.88
2018-01-23T14:06:08.520Z,61.88
2018-01-23T14:08:01.778Z,61.88
2018-01-23T14:09:01.704Z,61.88
2018-01-23T14:10:55.116Z,56.25
2018-01-23T14:11:54.904Z,61.88
2018-01-23T14:13:48.190Z,61.88
2018-01-23T14:14:48.098Z,61.88
2018-01-23T14:16:41.485Z,56.25
2018-01-23T14:17:41.343Z,56.25
2018-01-23T14:19:35.701Z,50.63
2018-01-23T14:20:35.224Z,50.63
2018-01-23T14:22:27.862Z,50.63
2018-01-23T14:23:28.440Z,50.63
2018-01-23T14:25:21.164Z,45.00
2018-01-23T14:26:20.997Z,45.00
2018-01-23T14:28:14.264Z,45.00
2018-01-23T14:29:14.234Z,45.00
2018-01-23T14:31:07.008Z,45.00
2018-01-23T14:32:06.904Z,45.00
2018-01-23T14:34:00.202Z,39.38
2018-01-23T14:35:00.081Z,39.38
2018-01-23T14:36:53.424Z,39.38
2018-01-23T14:37:53.339Z,39.38
2018-01-23T14:39:46.623Z,39.38
2018-01-23T14:40:46.533Z,39.38
2018-01-23T14:42:39.903Z,33.75
2018-01-23T14:43:39.749Z,33.75
2018-01-23T14:45:33.009Z,33.75
2018-01-23T14:46:32.925Z,28.13
2018-01-23T14:48:26.301Z,28.13
2018-01-23T14:49:26.136Z,28.13
2018-01-23T14:51:19.499Z,28.13
2018-01-23T14:52:19.356Z,22.50
2018-01-23T14:54:13.700Z,22.50
2018-01-23T14:55:12.534Z,16.88
2018-01-23T14:57:05.788Z,16.88
2018-01-23T14:58:05.714Z,16.88
2018-01-23T14:59:59.582Z,16.88
2018-01-23T15:00:59.465Z,16.88
2018-01-23T15:02:52.753Z,16.88
2018-01-23T15:03:52.659Z,16.88
2018-01-23T15:05:45.927Z,16.88
2018-01-23T15:06:45.822Z,16.88
2018-01-23T15:08:39.085Z,16.88
2018-01-23T15:09:39.016Z,16.88
2018-01-23T15:11:32.295Z,16.88
2018-01-23T15:12:32.213Z,16.88
2018-01-23T15:14:25.472Z,16.88
2018-01-23T15:15:25.390Z,16.88
2018-01-23T15:17:18.763Z,16.88
2018-01-23T15:18:18.624Z,16.88
2018-01-23T15:20:12.032Z,11.25
2018-01-23T15:21:11.807Z,11.25
2018-01-23T15:23:05.058Z,11.25
2018-01-23T15:24:04.984Z,11.25
2018-01-23T15:25:58.405Z,11.25
2018-01-23T15:26:58.179Z,11.25
2018-01-23T15:28:51.449Z,11.25
2018-01-23T15:29:51.392Z,11.25
2018-01-23T15:31:45.273Z,11.25
2018-01-23T15:32:44.598Z,11.25
2018-01-23T15:34:37.422Z,11.25
2018-01-23T15:35:37.338Z,5.63
2018-01-23T15:37:30.596Z,5.63
2018-01-23T15:38:30.524Z,5.63
2018-01-23T15:40:23.820Z,5.63
2018-01-23T15:41:23.711Z,5.63
2018-01-23T15:43:16.985Z,5.63
2018-01-23T15:44:16.911Z,5.63
2018-01-23T15:46:10.188Z,0.00
2018-01-23T15:47:10.102Z,0.00
2018-01-23T15:49:03.408Z,0.00
2018-01-23T15:50:03.339Z,0.00
2018-01-23T15:51:56.620Z,0.00
2018-01-23T15:52:56.534Z,0.00
2018-01-23T15:54:49.813Z,0.00
2018-01-23T15:55:49.728Z,0.00
2018-01-23T15:57:42.988Z,0.00
2018-01-23T15:58:42.921Z,0.00
2018-01-23T16:00:36.306Z,0.00
2018-01-23T16:01:36.116Z,0.00
2018-01-23T16:03:29.482Z,0.00
2018-01-23T16:04:29.337Z,0.00
2018-01-23T16:06:22.604Z,0.00
2018-01-23T16:07:22.517Z,0.00
2018-01-23T16:09:15.768Z,0.00
2018-01-23T16:10:15.696Z,0.00
2018-01-23T16:12:08.970Z,0.00
2018-01-23T16:13:08.879Z,0.00
2018-01-23T16:15:02.265Z,0.00
2018-01-23T16:16:02.066Z,0.00
2018-01-23T16:17:55.408Z,0.00
2018-01-23T16:18:55.342Z,0.00
2018-01-23T16:20:48.620Z,0.00
2018-01-23T16:21:48.532Z,0.00
2018-01-23T16:23:41.794Z,0.00
2018-01-23T16:24:41.724Z,0.00
2018-01-23T16:26:35.115Z,0.00
2018-01-23T16:27:34.909Z,0.00
2018-01-23T16:29:28.169Z,0.00
2018-01-23T16:30:28.100Z,0.00
2018-01-23T16:32:21.421Z,0.00
2018-01-23T16:33:21.339Z,0.00
2018-01-23T16:35:14.728Z,0.00
2018-01-23T16:36:14.520Z,0.00
2018-01-23T16:38:07.775Z,0.00
2018-01-23T16:39:07.736Z,0.00
2018-01-23T16:41:01.097Z,0.00
2018-01-23T16:42:00.922Z,0.00
2018-01-23T16:43:54.336Z,0.00
2018-01-23T16:44:54.196Z,0.00
2018-01-23T16:46:47.527Z,0.00
2018-01-23T16:47:47.564Z,0.00
2018-01-23T16:49:40.671Z,0.00
2018-01-23T16:50:40.605Z,0.00
2018-01-23T16:52:33.906Z,0.00
2018-01-23T16:53:33.824Z,0.00
2018-01-23T16:55:27.090Z,0.00
2018-01-23T16:56:27.005Z,0.00
2018-01-23T16:58:20.252Z,0.00
2018-01-23T16:59:20.182Z,0.00
2018-01-23T17:01:13.454Z,0.00
2018-01-23T17:02:13.366Z,0.00
2018-01-23T17:04:06.618Z,0.00
2018-01-23T17:05:06.549Z,0.00
2018-01-23T17:06:59.830Z,0.00
2018-01-23T17:07:59.741Z,0.00
2018-01-23T17:09:52.995Z,0.00
2018-01-23T17:10:52.917Z,0.00
2018-01-23T17:12:46.183Z,0.00
2018-01-23T17:13:46.097Z,0.00
2018-01-23T17:15:39.381Z,0.00
2018-01-23T17:16:39.314Z,0.00
2018-01-23T17:18:32.544Z,0.00
2018-01-23T17:19:32.488Z,0.00
2018-01-23T17:21:25.745Z,0.00
2018-01-23T17:22:25.661Z,0.00
2018-01-23T17:24:18.533Z,0.00
2018-01-23T17:25:18.465Z,0.00
2018-01-23T17:27:11.849Z,0.00
2018-01-23T17:28:11.691Z,0.00
2018-01-23T17:30:04.907Z,0.00
2018-01-23T17:31:04.838Z,0.00
2018-01-23T17:32:58.118Z,0.00
2018-01-23T17:33:58.033Z,0.00
2018-01-23T17:35:51.420Z,0.00
2018-01-23T17:36:51.213Z,0.00
2018-01-23T17:38:44.463Z,0.00
2018-01-23T17:39:44.432Z,0.00
2018-01-23T17:41:37.661Z,0.00
2018-01-23T17:42:37.576Z,0.00
2018-01-23T17:44:30.821Z,0.00
2018-01-23T17:45:30.752Z,0.00
2018-01-23T17:47:24.030Z,0.00
2018-01-23T17:48:23.941Z,0.00
2018-01-23T17:50:17.196Z,0.00
2018-01-23T17:51:17.128Z,0.00
2018-01-23T17:53:11.428Z,0.00
2018-01-23T17:54:11.341Z,0.00
2018-01-23T17:56:04.608Z,0.00
2018-01-23T17:57:04.520Z,0.00
2018-01-23T17:58:57.770Z,0.00
2018-01-23T17:59:57.701Z,0.00
2018-01-23T18:01:50.981Z,0.00
2018-01-23T18:02:50.897Z,0.00
2018-01-23T18:04:44.156Z,0.00
2018-01-23T18:05:44.086Z,0.00
2018-01-23T18:07:37.427Z,0.00
2018-01-23T18:08:37.344Z,0.00
2018-01-23T18:10:30.603Z,0.00
2018-01-23T18:11:30.530Z,0.00
2018-01-23T18:13:23.808Z,0.00
2018-01-23T18:14:23.722Z,0.00
2018-01-23T18:16:17.003Z,0.00
2018-01-23T18:17:16.916Z,0.00
2018-01-23T18:19:10.175Z,0.00
2018-01-23T18:20:10.103Z,0.00
2018-01-23T18:22:04.381Z,0.00
2018-01-23T18:23:04.293Z,0.00
2018-01-23T18:24:57.593Z,0.00
2018-01-23T18:25:57.533Z,0.00
2018-01-23T18:27:51.653Z,0.00
2018-01-23T18:28:51.561Z,0.00
2018-01-23T18:30:44.840Z,0.00
2018-01-23T18:31:44.756Z,0.00
2018-01-23T18:33:38.141Z,0.00
2018-01-23T18:34:37.946Z,0.00
2018-01-23T18:36:31.222Z,0.00
2018-01-23T18:37:31.137Z,0.00
2018-01-23T18:39:24.403Z,0.00
2018-01-23T18:40:24.338Z,0.00
2018-01-23T18:42:17.614Z,0.00
2018-01-23T18:43:17.526Z,0.00
2018-01-23T18:45:10.790Z,0.00
2018-01-23T18:46:10.714Z,0.00
2018-01-23T18:48:03.995Z,0.00
2018-01-23T18:49:03.910Z,0.00
2018-01-23T18:50:57.279Z,0.00
2018-01-23T18:51:57.132Z,0.00
2018-01-23T18:53:50.414Z,0.00
2018-01-23T18:54:50.331Z,0.00
2018-01-23T18:56:43.606Z,0.00